sensor_id;sensor_type;location;lat;lon;timestamp;P1;durP1;ratioP1;P2;durP2;ratioP2
13975;SDS011;7062;49.792;9.946;2023-07-16T00:00:11;2.63;;;2.37;;
13975;SDS011;7062;49.792;9.946;2023-07-16T00:02:37;3.90;;;2.33;;
13975;SDS011;7062;49.792;9.946;2023-07-16T00:05:03;4.20;;;2.73;;
13975;SDS011;7062;49.792;9.946;2023-07-16T00:07:29;2.53;;;2.33;;
13975;SDS011;7062;49.792;9.946;2023-07-16T00:09:55;5.83;;;2.93;;
13975;SDS011;7062;49.792;9.946;2023-07-16T00:12:20;3.17;;;2.83;;
13975;SDS011;7062;49.792;9.946;2023-07-16T00:14:47;4.50;;;3.07;;
13975;SDS011;7062;49.792;9.946;2023-07-16T00:17:13;3.83;;;2.87;;
13975;SDS011;7062;49.792;9.946;2023-07-16T00:19:38;2.67;;;2.27;;
13975;SDS011;7062;49.792;9.946;2023-07-16T00:22:04;2.53;;;2.07;;
13975;SDS011;7062;49.792;9.946;2023-07-16T00:24:30;3.77;;;2.47;;
13975;SDS011;7062;49.792;9.946;2023-07-16T00:26:56;6.40;;;3.00;;
13975;SDS011;7062;49.792;9.946;2023-07-16T00:29:22;5.37;;;2.70;;
13975;SDS011;7062;49.792;9.946;2023-07-16T00:31:48;4.17;;;2.33;;
13975;SDS011;7062;49.792;9.946;2023-07-16T00:34:13;4.10;;;2.37;;
13975;SDS011;7062;49.792;9.946;2023-07-16T00:36:39;2.17;;;1.83;;
13975;SDS011;7062;49.792;9.946;2023-07-16T00:39:05;3.03;;;2.20;;
13975;SDS011;7062;49.792;9.946;2023-07-16T00:41:30;4.10;;;2.50;;
13975;SDS011;7062;49.792;9.946;2023-07-16T00:43:56;3.47;;;2.50;;
13975;SDS011;7062;49.792;9.946;2023-07-16T00:46:22;3.53;;;2.47;;
13975;SDS011;7062;49.792;9.946;2023-07-16T00:48:49;2.80;;;2.40;;
13975;SDS011;7062;49.792;9.946;2023-07-16T00:51:14;3.23;;;2.40;;
13975;SDS011;7062;49.792;9.946;2023-07-16T00:53:41;2.90;;;2.07;;
13975;SDS011;7062;49.792;9.946;2023-07-16T00:56:08;3.43;;;2.57;;
13975;SDS011;7062;49.792;9.946;2023-07-16T00:58:34;2.47;;;2.20;;
13975;SDS011;7062;49.792;9.946;2023-07-16T01:01:00;2.20;;;2.00;;
13975;SDS011;7062;49.792;9.946;2023-07-16T01:03:25;3.97;;;1.90;;
13975;SDS011;7062;49.792;9.946;2023-07-16T01:06:11;2.60;;;2.27;;
13975;SDS011;7062;49.792;9.946;2023-07-16T01:08:49;2.43;;;1.83;;
13975;SDS011;7062;49.792;9.946;2023-07-16T01:11:45;4.53;;;2.00;;
13975;SDS011;7062;49.792;9.946;2023-07-16T01:14:12;3.90;;;2.20;;
13975;SDS011;7062;49.792;9.946;2023-07-16T01:16:41;2.83;;;2.43;;
13975;SDS011;7062;49.792;9.946;2023-07-16T01:19:07;4.43;;;2.47;;
13975;SDS011;7062;49.792;9.946;2023-07-16T01:27:30;3.90;;;2.47;;
13975;SDS011;7062;49.792;9.946;2023-07-16T01:30:08;4.47;;;1.90;;
13975;SDS011;7062;49.792;9.946;2023-07-16T01:32:35;2.33;;;1.83;;
13975;SDS011;7062;49.792;9.946;2023-07-16T01:35:02;2.87;;;2.17;;
13975;SDS011;7062;49.792;9.946;2023-07-16T01:37:30;2.87;;;2.03;;
13975;SDS011;7062;49.792;9.946;2023-07-16T01:39:56;4.10;;;2.00;;
13975;SDS011;7062;49.792;9.946;2023-07-16T01:42:22;2.37;;;1.80;;
13975;SDS011;7062;49.792;9.946;2023-07-16T01:44:48;3.53;;;1.87;;
13975;SDS011;7062;49.792;9.946;2023-07-16T01:47:19;3.77;;;1.80;;
13975;SDS011;7062;49.792;9.946;2023-07-16T01:49:53;3.07;;;1.70;;
13975;SDS011;7062;49.792;9.946;2023-07-16T01:52:18;2.93;;;1.50;;
13975;SDS011;7062;49.792;9.946;2023-07-16T01:54:44;1.97;;;1.60;;
13975;SDS011;7062;49.792;9.946;2023-07-16T01:57:09;3.20;;;1.73;;
13975;SDS011;7062;49.792;9.946;2023-07-16T01:59:35;2.57;;;2.03;;
13975;SDS011;7062;49.792;9.946;2023-07-16T02:02:01;5.00;;;2.13;;
13975;SDS011;7062;49.792;9.946;2023-07-16T02:04:26;2.37;;;2.13;;
13975;SDS011;7062;49.792;9.946;2023-07-16T02:06:52;2.43;;;1.90;;
13975;SDS011;7062;49.792;9.946;2023-07-16T02:09:18;4.67;;;2.27;;
13975;SDS011;7062;49.792;9.946;2023-07-16T02:11:43;3.00;;;1.97;;
13975;SDS011;7062;49.792;9.946;2023-07-16T02:14:09;4.57;;;2.43;;
13975;SDS011;7062;49.792;9.946;2023-07-16T02:16:34;5.50;;;2.20;;
13975;SDS011;7062;49.792;9.946;2023-07-16T02:19:00;3.13;;;2.20;;
13975;SDS011;7062;49.792;9.946;2023-07-16T02:21:26;5.53;;;2.17;;
13975;SDS011;7062;49.792;9.946;2023-07-16T02:23:51;3.47;;;1.80;;
13975;SDS011;7062;49.792;9.946;2023-07-16T02:26:17;4.03;;;1.93;;
13975;SDS011;7062;49.792;9.946;2023-07-16T02:28:43;2.77;;;1.67;;
13975;SDS011;7062;49.792;9.946;2023-07-16T02:31:08;3.07;;;1.50;;
13975;SDS011;7062;49.792;9.946;2023-07-16T02:33:34;3.43;;;1.43;;
13975;SDS011;7062;49.792;9.946;2023-07-16T02:35:59;2.43;;;1.30;;
13975;SDS011;7062;49.792;9.946;2023-07-16T02:38:25;3.23;;;1.73;;
13975;SDS011;7062;49.792;9.946;2023-07-16T02:40:51;4.73;;;1.37;;
13975;SDS011;7062;49.792;9.946;2023-07-16T02:43:16;3.37;;;1.37;;
13975;SDS011;7062;49.792;9.946;2023-07-16T02:45:42;1.53;;;1.10;;
13975;SDS011;7062;49.792;9.946;2023-07-16T02:48:08;3.27;;;1.57;;
13975;SDS011;7062;49.792;9.946;2023-07-16T02:50:34;1.30;;;1.10;;
13975;SDS011;7062;49.792;9.946;2023-07-16T02:53:01;1.83;;;1.10;;
13975;SDS011;7062;49.792;9.946;2023-07-16T02:55:27;0.80;;;0.80;;
13975;SDS011;7062;49.792;9.946;2023-07-16T02:57:52;2.73;;;1.53;;
13975;SDS011;7062;49.792;9.946;2023-07-16T03:00:18;1.73;;;1.20;;
13975;SDS011;7062;49.792;9.946;2023-07-16T03:02:44;1.50;;;1.13;;
13975;SDS011;7062;49.792;9.946;2023-07-16T03:05:09;1.87;;;1.53;;
13975;SDS011;7062;49.792;9.946;2023-07-16T03:07:35;1.43;;;1.10;;
13975;SDS011;7062;49.792;9.946;2023-07-16T03:10:00;2.40;;;1.57;;
13975;SDS011;7062;49.792;9.946;2023-07-16T03:12:26;1.73;;;1.13;;
13975;SDS011;7062;49.792;9.946;2023-07-16T03:14:52;8.93;;;1.70;;
13975;SDS011;7062;49.792;9.946;2023-07-16T03:17:19;1.07;;;0.83;;
13975;SDS011;7062;49.792;9.946;2023-07-16T03:19:46;3.27;;;1.10;;
13975;SDS011;7062;49.792;9.946;2023-07-16T03:22:12;3.67;;;1.20;;
13975;SDS011;7062;49.792;9.946;2023-07-16T03:24:37;1.40;;;1.20;;
13975;SDS011;7062;49.792;9.946;2023-07-16T03:27:03;2.00;;;0.90;;
13975;SDS011;7062;49.792;9.946;2023-07-16T03:29:29;2.80;;;1.40;;
13975;SDS011;7062;49.792;9.946;2023-07-16T03:31:55;1.80;;;1.33;;
13975;SDS011;7062;49.792;9.946;2023-07-16T03:34:20;1.37;;;0.80;;
13975;SDS011;7062;49.792;9.946;2023-07-16T03:36:46;3.60;;;1.43;;
13975;SDS011;7062;49.792;9.946;2023-07-16T03:39:12;2.87;;;1.00;;
13975;SDS011;7062;49.792;9.946;2023-07-16T03:41:37;1.63;;;1.00;;
13975;SDS011;7062;49.792;9.946;2023-07-16T03:44:03;2.27;;;1.00;;
13975;SDS011;7062;49.792;9.946;2023-07-16T03:46:29;1.13;;;1.03;;
13975;SDS011;7062;49.792;9.946;2023-07-16T03:48:54;1.87;;;1.23;;
13975;SDS011;7062;49.792;9.946;2023-07-16T03:51:20;4.37;;;1.60;;
13975;SDS011;7062;49.792;9.946;2023-07-16T03:53:46;2.37;;;1.00;;
13975;SDS011;7062;49.792;9.946;2023-07-16T03:56:11;2.43;;;1.17;;
13975;SDS011;7062;49.792;9.946;2023-07-16T03:58:37;2.73;;;1.17;;
13975;SDS011;7062;49.792;9.946;2023-07-16T04:01:03;1.43;;;1.23;;
13975;SDS011;7062;49.792;9.946;2023-07-16T04:03:28;3.23;;;1.03;;
13975;SDS011;7062;49.792;9.946;2023-07-16T04:06:03;2.90;;;1.53;;
13975;SDS011;7062;49.792;9.946;2023-07-16T04:08:30;3.17;;;1.30;;
13975;SDS011;7062;49.792;9.946;2023-07-16T04:10:55;2.20;;;1.10;;
13975;SDS011;7062;49.792;9.946;2023-07-16T04:13:21;2.37;;;1.20;;
13975;SDS011;7062;49.792;9.946;2023-07-16T04:15:46;3.67;;;1.50;;
13975;SDS011;7062;49.792;9.946;2023-07-16T04:18:12;4.77;;;1.20;;
13975;SDS011;7062;49.792;9.946;2023-07-16T04:20:38;2.83;;;1.40;;
13975;SDS011;7062;49.792;9.946;2023-07-16T04:23:03;4.70;;;1.27;;
13975;SDS011;7062;49.792;9.946;2023-07-16T04:25:29;3.37;;;1.30;;
13975;SDS011;7062;49.792;9.946;2023-07-16T04:27:55;4.23;;;1.63;;
13975;SDS011;7062;49.792;9.946;2023-07-16T04:30:21;3.43;;;1.13;;
13975;SDS011;7062;49.792;9.946;2023-07-16T04:32:47;4.67;;;1.57;;
13975;SDS011;7062;49.792;9.946;2023-07-16T04:35:13;3.10;;;1.00;;
13975;SDS011;7062;49.792;9.946;2023-07-16T04:37:38;6.47;;;1.40;;
13975;SDS011;7062;49.792;9.946;2023-07-16T04:40:04;1.67;;;1.20;;
13975;SDS011;7062;49.792;9.946;2023-07-16T04:42:31;3.60;;;1.50;;
13975;SDS011;7062;49.792;9.946;2023-07-16T04:44:56;1.93;;;1.20;;
13975;SDS011;7062;49.792;9.946;2023-07-16T04:47:22;2.90;;;1.30;;
13975;SDS011;7062;49.792;9.946;2023-07-16T04:49:47;4.93;;;1.77;;
13975;SDS011;7062;49.792;9.946;2023-07-16T04:52:13;3.37;;;1.73;;
13975;SDS011;7062;49.792;9.946;2023-07-16T04:54:39;2.90;;;2.60;;
13975;SDS011;7062;49.792;9.946;2023-07-16T04:57:07;4.87;;;1.23;;
13975;SDS011;7062;49.792;9.946;2023-07-16T04:59:33;3.87;;;1.67;;
13975;SDS011;7062;49.792;9.946;2023-07-16T05:01:59;3.00;;;1.10;;
13975;SDS011;7062;49.792;9.946;2023-07-16T05:04:26;4.10;;;1.17;;
13975;SDS011;7062;49.792;9.946;2023-07-16T05:06:52;4.03;;;1.20;;
13975;SDS011;7062;49.792;9.946;2023-07-16T05:09:18;2.13;;;1.27;;
13975;SDS011;7062;49.792;9.946;2023-07-16T05:11:45;6.97;;;1.77;;
13975;SDS011;7062;49.792;9.946;2023-07-16T05:14:11;2.77;;;1.30;;
13975;SDS011;7062;49.792;9.946;2023-07-16T05:16:36;5.13;;;1.43;;
13975;SDS011;7062;49.792;9.946;2023-07-16T05:19:02;2.07;;;1.23;;
13975;SDS011;7062;49.792;9.946;2023-07-16T05:21:27;3.20;;;1.70;;
13975;SDS011;7062;49.792;9.946;2023-07-16T05:23:53;2.53;;;1.30;;
13975;SDS011;7062;49.792;9.946;2023-07-16T05:26:19;7.00;;;1.27;;
13975;SDS011;7062;49.792;9.946;2023-07-16T05:28:44;5.33;;;1.77;;
13975;SDS011;7062;49.792;9.946;2023-07-16T05:31:10;2.13;;;1.30;;
13975;SDS011;7062;49.792;9.946;2023-07-16T05:33:36;3.97;;;1.67;;
13975;SDS011;7062;49.792;9.946;2023-07-16T05:36:01;4.93;;;1.53;;
13975;SDS011;7062;49.792;9.946;2023-07-16T05:38:27;3.17;;;1.37;;
13975;SDS011;7062;49.792;9.946;2023-07-16T05:40:52;2.57;;;1.17;;
13975;SDS011;7062;49.792;9.946;2023-07-16T05:43:18;3.30;;;1.03;;
13975;SDS011;7062;49.792;9.946;2023-07-16T05:45:44;4.27;;;1.37;;
13975;SDS011;7062;49.792;9.946;2023-07-16T05:48:09;2.80;;;1.50;;
13975;SDS011;7062;49.792;9.946;2023-07-16T05:50:35;3.00;;;1.20;;
13975;SDS011;7062;49.792;9.946;2023-07-16T05:53:00;4.90;;;1.33;;
13975;SDS011;7062;49.792;9.946;2023-07-16T05:55:26;3.17;;;1.20;;
13975;SDS011;7062;49.792;9.946;2023-07-16T05:57:52;2.27;;;1.20;;
13975;SDS011;7062;49.792;9.946;2023-07-16T06:00:18;3.93;;;1.50;;
13975;SDS011;7062;49.792;9.946;2023-07-16T06:02:43;5.40;;;1.47;;
13975;SDS011;7062;49.792;9.946;2023-07-16T06:05:09;5.40;;;1.73;;
13975;SDS011;7062;49.792;9.946;2023-07-16T06:07:35;4.70;;;1.10;;
13975;SDS011;7062;49.792;9.946;2023-07-16T06:10:00;4.83;;;1.30;;
13975;SDS011;7062;49.792;9.946;2023-07-16T06:12:26;5.00;;;1.53;;
13975;SDS011;7062;49.792;9.946;2023-07-16T06:14:52;4.90;;;1.40;;
13975;SDS011;7062;49.792;9.946;2023-07-16T06:17:18;2.43;;;1.47;;
13975;SDS011;7062;49.792;9.946;2023-07-16T06:19:43;3.03;;;1.50;;
13975;SDS011;7062;49.792;9.946;2023-07-16T06:22:09;8.27;;;1.40;;
13975;SDS011;7062;49.792;9.946;2023-07-16T06:24:35;8.07;;;1.87;;
13975;SDS011;7062;49.792;9.946;2023-07-16T06:27:00;3.97;;;1.33;;
13975;SDS011;7062;49.792;9.946;2023-07-16T06:29:26;3.33;;;1.13;;
13975;SDS011;7062;49.792;9.946;2023-07-16T06:31:55;4.10;;;1.63;;
13975;SDS011;7062;49.792;9.946;2023-07-16T06:34:22;4.77;;;1.10;;
13975;SDS011;7062;49.792;9.946;2023-07-16T06:36:48;6.07;;;1.80;;
13975;SDS011;7062;49.792;9.946;2023-07-16T06:39:14;2.33;;;1.07;;
13975;SDS011;7062;49.792;9.946;2023-07-16T06:41:39;3.40;;;1.30;;
13975;SDS011;7062;49.792;9.946;2023-07-16T06:44:05;4.00;;;1.47;;
13975;SDS011;7062;49.792;9.946;2023-07-16T06:46:31;6.87;;;1.30;;
13975;SDS011;7062;49.792;9.946;2023-07-16T06:48:56;2.80;;;1.67;;
13975;SDS011;7062;49.792;9.946;2023-07-16T06:51:22;2.10;;;1.27;;
13975;SDS011;7062;49.792;9.946;2023-07-16T06:53:48;3.43;;;1.60;;
13975;SDS011;7062;49.792;9.946;2023-07-16T06:56:14;8.33;;;1.13;;
13975;SDS011;7062;49.792;9.946;2023-07-16T06:58:40;4.97;;;1.93;;
13975;SDS011;7062;49.792;9.946;2023-07-16T07:01:06;4.63;;;1.17;;
13975;SDS011;7062;49.792;9.946;2023-07-16T07:03:31;8.23;;;1.27;;
13975;SDS011;7062;49.792;9.946;2023-07-16T07:06:03;3.33;;;1.50;;
13975;SDS011;7062;49.792;9.946;2023-07-16T07:08:29;3.50;;;1.20;;
13975;SDS011;7062;49.792;9.946;2023-07-16T07:10:55;5.83;;;1.57;;
13975;SDS011;7062;49.792;9.946;2023-07-16T07:13:21;5.93;;;1.70;;
13975;SDS011;7062;49.792;9.946;2023-07-16T07:15:47;5.97;;;1.60;;
13975;SDS011;7062;49.792;9.946;2023-07-16T07:18:12;4.80;;;1.47;;
13975;SDS011;7062;49.792;9.946;2023-07-16T07:20:39;6.37;;;1.83;;
13975;SDS011;7062;49.792;9.946;2023-07-16T07:23:05;3.07;;;1.60;;
13975;SDS011;7062;49.792;9.946;2023-07-16T07:25:30;4.33;;;1.57;;
13975;SDS011;7062;49.792;9.946;2023-07-16T07:27:56;7.50;;;2.33;;
13975;SDS011;7062;49.792;9.946;2023-07-16T07:30:22;5.43;;;1.60;;
13975;SDS011;7062;49.792;9.946;2023-07-16T07:32:48;6.00;;;1.63;;
13975;SDS011;7062;49.792;9.946;2023-07-16T07:35:13;6.07;;;1.40;;
13975;SDS011;7062;49.792;9.946;2023-07-16T07:37:39;4.60;;;1.33;;
13975;SDS011;7062;49.792;9.946;2023-07-16T07:40:05;2.53;;;1.30;;
13975;SDS011;7062;49.792;9.946;2023-07-16T07:42:32;3.73;;;1.67;;
13975;SDS011;7062;49.792;9.946;2023-07-16T07:44:58;3.50;;;1.10;;
13975;SDS011;7062;49.792;9.946;2023-07-16T07:47:24;3.17;;;2.10;;
13975;SDS011;7062;49.792;9.946;2023-07-16T07:49:50;3.40;;;1.20;;
13975;SDS011;7062;49.792;9.946;2023-07-16T07:52:17;4.13;;;1.30;;
13975;SDS011;7062;49.792;9.946;2023-07-16T07:54:43;4.87;;;1.27;;
13975;SDS011;7062;49.792;9.946;2023-07-16T07:57:09;4.17;;;1.70;;
13975;SDS011;7062;49.792;9.946;2023-07-16T07:59:34;4.43;;;1.53;;
13975;SDS011;7062;49.792;9.946;2023-07-16T08:02:00;7.90;;;1.67;;
13975;SDS011;7062;49.792;9.946;2023-07-16T08:04:28;3.90;;;1.10;;
13975;SDS011;7062;49.792;9.946;2023-07-16T08:06:55;3.47;;;1.13;;
13975;SDS011;7062;49.792;9.946;2023-07-16T08:09:21;6.23;;;1.80;;
13975;SDS011;7062;49.792;9.946;2023-07-16T08:11:47;5.47;;;1.97;;
13975;SDS011;7062;49.792;9.946;2023-07-16T08:14:12;2.70;;;1.37;;
13975;SDS011;7062;49.792;9.946;2023-07-16T08:16:38;4.37;;;1.60;;
13975;SDS011;7062;49.792;9.946;2023-07-16T08:19:03;2.70;;;1.53;;
13975;SDS011;7062;49.792;9.946;2023-07-16T08:21:29;3.80;;;1.30;;
13975;SDS011;7062;49.792;9.946;2023-07-16T08:23:55;3.07;;;1.57;;
13975;SDS011;7062;49.792;9.946;2023-07-16T08:26:21;3.20;;;1.40;;
13975;SDS011;7062;49.792;9.946;2023-07-16T08:28:46;4.77;;;1.53;;
13975;SDS011;7062;49.792;9.946;2023-07-16T08:31:12;4.73;;;1.23;;
13975;SDS011;7062;49.792;9.946;2023-07-16T08:33:38;4.87;;;1.30;;
13975;SDS011;7062;49.792;9.946;2023-07-16T08:36:04;2.93;;;1.27;;
13975;SDS011;7062;49.792;9.946;2023-07-16T08:38:30;4.77;;;1.93;;
13975;SDS011;7062;49.792;9.946;2023-07-16T08:40:55;3.73;;;1.50;;
13975;SDS011;7062;49.792;9.946;2023-07-16T08:43:21;3.43;;;1.23;;
13975;SDS011;7062;49.792;9.946;2023-07-16T08:45:48;3.90;;;1.53;;
13975;SDS011;7062;49.792;9.946;2023-07-16T08:48:14;3.77;;;1.33;;
13975;SDS011;7062;49.792;9.946;2023-07-16T08:50:42;3.60;;;1.23;;
13975;SDS011;7062;49.792;9.946;2023-07-16T08:53:12;3.80;;;1.27;;
13975;SDS011;7062;49.792;9.946;2023-07-16T08:55:39;1.93;;;1.33;;
13975;SDS011;7062;49.792;9.946;2023-07-16T08:58:05;4.23;;;1.33;;
13975;SDS011;7062;49.792;9.946;2023-07-16T09:00:32;5.50;;;1.97;;
13975;SDS011;7062;49.792;9.946;2023-07-16T09:02:58;6.03;;;1.73;;
13975;SDS011;7062;49.792;9.946;2023-07-16T09:05:24;2.10;;;1.20;;
13975;SDS011;7062;49.792;9.946;2023-07-16T09:07:50;4.63;;;1.13;;
13975;SDS011;7062;49.792;9.946;2023-07-16T09:10:16;5.40;;;1.27;;
13975;SDS011;7062;49.792;9.946;2023-07-16T09:12:43;3.33;;;1.07;;
13975;SDS011;7062;49.792;9.946;2023-07-16T09:15:10;5.60;;;1.57;;
13975;SDS011;7062;49.792;9.946;2023-07-16T09:17:36;3.67;;;1.17;;
13975;SDS011;7062;49.792;9.946;2023-07-16T09:20:03;4.27;;;1.07;;
13975;SDS011;7062;49.792;9.946;2023-07-16T09:22:30;5.43;;;1.33;;
13975;SDS011;7062;49.792;9.946;2023-07-16T09:24:56;5.63;;;1.27;;
13975;SDS011;7062;49.792;9.946;2023-07-16T09:27:27;2.90;;;1.10;;
13975;SDS011;7062;49.792;9.946;2023-07-16T09:29:54;4.63;;;1.40;;
13975;SDS011;7062;49.792;9.946;2023-07-16T09:32:19;2.73;;;1.10;;
13975;SDS011;7062;49.792;9.946;2023-07-16T09:34:48;2.87;;;1.27;;
13975;SDS011;7062;49.792;9.946;2023-07-16T09:37:14;5.10;;;1.50;;
13975;SDS011;7062;49.792;9.946;2023-07-16T09:39:43;3.20;;;1.13;;
13975;SDS011;7062;49.792;9.946;2023-07-16T09:42:11;2.73;;;1.20;;
13975;SDS011;7062;49.792;9.946;2023-07-16T09:44:38;2.43;;;1.60;;
13975;SDS011;7062;49.792;9.946;2023-07-16T09:47:06;4.13;;;1.10;;
13975;SDS011;7062;49.792;9.946;2023-07-16T09:49:32;2.90;;;1.03;;
13975;SDS011;7062;49.792;9.946;2023-07-16T09:51:57;3.63;;;1.27;;
13975;SDS011;7062;49.792;9.946;2023-07-16T09:54:26;3.57;;;1.60;;
13975;SDS011;7062;49.792;9.946;2023-07-16T09:56:57;3.20;;;1.00;;
13975;SDS011;7062;49.792;9.946;2023-07-16T09:59:27;6.07;;;1.37;;
13975;SDS011;7062;49.792;9.946;2023-07-16T10:01:55;3.33;;;1.20;;
13975;SDS011;7062;49.792;9.946;2023-07-16T10:04:24;4.17;;;1.40;;
13975;SDS011;7062;49.792;9.946;2023-07-16T10:09:33;3.10;;;1.47;;
13975;SDS011;7062;49.792;9.946;2023-07-16T10:12:13;3.77;;;1.30;;
13975;SDS011;7062;49.792;9.946;2023-07-16T10:14:40;6.53;;;1.53;;
13975;SDS011;7062;49.792;9.946;2023-07-16T10:17:05;4.77;;;1.30;;
13975;SDS011;7062;49.792;9.946;2023-07-16T10:19:34;4.60;;;1.70;;
13975;SDS011;7062;49.792;9.946;2023-07-16T10:22:10;2.00;;;1.07;;
13975;SDS011;7062;49.792;9.946;2023-07-16T10:24:38;5.73;;;1.60;;
13975;SDS011;7062;49.792;9.946;2023-07-16T10:27:04;6.03;;;1.80;;
13975;SDS011;7062;49.792;9.946;2023-07-16T10:29:30;2.87;;;1.23;;
13975;SDS011;7062;49.792;9.946;2023-07-16T10:31:56;3.73;;;1.83;;
13975;SDS011;7062;49.792;9.946;2023-07-16T10:34:23;5.37;;;2.20;;
13975;SDS011;7062;49.792;9.946;2023-07-16T10:36:50;3.63;;;0.90;;
13975;SDS011;7062;49.792;9.946;2023-07-16T10:39:16;3.30;;;1.57;;
13975;SDS011;7062;49.792;9.946;2023-07-16T10:41:41;2.60;;;1.23;;
13975;SDS011;7062;49.792;9.946;2023-07-16T10:44:08;5.60;;;1.93;;
13975;SDS011;7062;49.792;9.946;2023-07-16T10:46:34;3.13;;;1.10;;
13975;SDS011;7062;49.792;9.946;2023-07-16T10:49:01;2.23;;;1.17;;
13975;SDS011;7062;49.792;9.946;2023-07-16T10:51:27;4.67;;;1.23;;
13975;SDS011;7062;49.792;9.946;2023-07-16T10:53:57;3.67;;;1.73;;
13975;SDS011;7062;49.792;9.946;2023-07-16T10:56:22;4.50;;;1.30;;
13975;SDS011;7062;49.792;9.946;2023-07-16T10:58:48;4.07;;;1.43;;
13975;SDS011;7062;49.792;9.946;2023-07-16T11:01:14;3.30;;;1.63;;
13975;SDS011;7062;49.792;9.946;2023-07-16T11:03:40;3.83;;;1.67;;
13975;SDS011;7062;49.792;9.946;2023-07-16T11:06:08;2.80;;;1.13;;
13975;SDS011;7062;49.792;9.946;2023-07-16T11:08:34;3.23;;;1.17;;
13975;SDS011;7062;49.792;9.946;2023-07-16T11:11:00;4.33;;;1.37;;
13975;SDS011;7062;49.792;9.946;2023-07-16T11:13:27;3.73;;;1.40;;
13975;SDS011;7062;49.792;9.946;2023-07-16T11:15:53;3.87;;;1.53;;
13975;SDS011;7062;49.792;9.946;2023-07-16T11:18:21;2.80;;;1.47;;
13975;SDS011;7062;49.792;9.946;2023-07-16T11:20:50;3.27;;;1.63;;
13975;SDS011;7062;49.792;9.946;2023-07-16T11:23:19;3.37;;;1.40;;
13975;SDS011;7062;49.792;9.946;2023-07-16T11:25:51;2.97;;;1.67;;
13975;SDS011;7062;49.792;9.946;2023-07-16T11:28:17;4.10;;;1.70;;
13975;SDS011;7062;49.792;9.946;2023-07-16T11:30:42;4.27;;;1.60;;
13975;SDS011;7062;49.792;9.946;2023-07-16T11:33:11;4.70;;;1.73;;
13975;SDS011;7062;49.792;9.946;2023-07-16T11:35:37;3.70;;;1.87;;
13975;SDS011;7062;49.792;9.946;2023-07-16T11:38:04;4.30;;;1.57;;
13975;SDS011;7062;49.792;9.946;2023-07-16T11:40:31;3.53;;;1.60;;
13975;SDS011;7062;49.792;9.946;2023-07-16T11:43:07;3.47;;;1.23;;
13975;SDS011;7062;49.792;9.946;2023-07-16T11:45:36;5.67;;;1.53;;
13975;SDS011;7062;49.792;9.946;2023-07-16T11:48:03;3.50;;;1.47;;
13975;SDS011;7062;49.792;9.946;2023-07-16T11:50:29;7.80;;;2.27;;
13975;SDS011;7062;49.792;9.946;2023-07-16T11:52:56;4.53;;;2.13;;
13975;SDS011;7062;49.792;9.946;2023-07-16T11:55:24;4.63;;;1.60;;
13975;SDS011;7062;49.792;9.946;2023-07-16T11:57:50;3.47;;;1.40;;
13975;SDS011;7062;49.792;9.946;2023-07-16T12:00:16;2.90;;;1.70;;
13975;SDS011;7062;49.792;9.946;2023-07-16T12:02:42;4.63;;;2.00;;
13975;SDS011;7062;49.792;9.946;2023-07-16T12:05:15;5.27;;;1.50;;
13975;SDS011;7062;49.792;9.946;2023-07-16T12:07:42;2.87;;;1.60;;
13975;SDS011;7062;49.792;9.946;2023-07-16T12:10:07;1.97;;;1.20;;
13975;SDS011;7062;49.792;9.946;2023-07-16T12:12:33;4.30;;;1.60;;
13975;SDS011;7062;49.792;9.946;2023-07-16T12:15:06;3.63;;;1.37;;
13975;SDS011;7062;49.792;9.946;2023-07-16T12:17:33;4.70;;;1.97;;
13975;SDS011;7062;49.792;9.946;2023-07-16T12:19:59;8.67;;;2.13;;
13975;SDS011;7062;49.792;9.946;2023-07-16T12:22:25;3.83;;;2.00;;
13975;SDS011;7062;49.792;9.946;2023-07-16T12:24:52;4.47;;;1.67;;
13975;SDS011;7062;49.792;9.946;2023-07-16T12:27:17;2.43;;;1.20;;
13975;SDS011;7062;49.792;9.946;2023-07-16T12:29:43;3.30;;;1.30;;
13975;SDS011;7062;49.792;9.946;2023-07-16T12:32:09;2.83;;;1.70;;
13975;SDS011;7062;49.792;9.946;2023-07-16T12:34:35;2.80;;;1.40;;
13975;SDS011;7062;49.792;9.946;2023-07-16T12:37:02;6.00;;;1.83;;
13975;SDS011;7062;49.792;9.946;2023-07-16T12:39:28;3.00;;;1.60;;
13975;SDS011;7062;49.792;9.946;2023-07-16T12:41:53;3.80;;;1.70;;
13975;SDS011;7062;49.792;9.946;2023-07-16T12:44:19;3.57;;;1.57;;
13975;SDS011;7062;49.792;9.946;2023-07-16T12:46:45;2.60;;;1.40;;
13975;SDS011;7062;49.792;9.946;2023-07-16T12:49:10;3.43;;;1.43;;
13975;SDS011;7062;49.792;9.946;2023-07-16T12:51:36;2.77;;;1.37;;
13975;SDS011;7062;49.792;9.946;2023-07-16T12:54:02;5.07;;;1.50;;
13975;SDS011;7062;49.792;9.946;2023-07-16T12:56:27;3.57;;;1.43;;
13975;SDS011;7062;49.792;9.946;2023-07-16T12:58:53;5.20;;;2.17;;
13975;SDS011;7062;49.792;9.946;2023-07-16T13:01:18;4.30;;;1.40;;
13975;SDS011;7062;49.792;9.946;2023-07-16T13:03:44;3.60;;;1.50;;
13975;SDS011;7062;49.792;9.946;2023-07-16T13:06:10;2.70;;;1.67;;
13975;SDS011;7062;49.792;9.946;2023-07-16T13:08:35;4.10;;;1.63;;
13975;SDS011;7062;49.792;9.946;2023-07-16T13:11:01;4.13;;;1.70;;
13975;SDS011;7062;49.792;9.946;2023-07-16T13:13:27;5.57;;;1.80;;
13975;SDS011;7062;49.792;9.946;2023-07-16T13:15:53;4.70;;;1.60;;
13975;SDS011;7062;49.792;9.946;2023-07-16T13:18:19;2.13;;;1.37;;
13975;SDS011;7062;49.792;9.946;2023-07-16T13:20:45;3.63;;;1.50;;
13975;SDS011;7062;49.792;9.946;2023-07-16T13:23:11;5.97;;;1.30;;
13975;SDS011;7062;49.792;9.946;2023-07-16T13:25:37;2.77;;;1.30;;
13975;SDS011;7062;49.792;9.946;2023-07-16T13:28:04;5.40;;;2.00;;
13975;SDS011;7062;49.792;9.946;2023-07-16T13:30:30;2.80;;;1.63;;
13975;SDS011;7062;49.792;9.946;2023-07-16T13:32:56;4.90;;;1.60;;
13975;SDS011;7062;49.792;9.946;2023-07-16T13:35:22;2.40;;;1.40;;
13975;SDS011;7062;49.792;9.946;2023-07-16T13:37:48;2.33;;;1.07;;
13975;SDS011;7062;49.792;9.946;2023-07-16T13:40:14;2.37;;;1.63;;
13975;SDS011;7062;49.792;9.946;2023-07-16T13:42:40;2.53;;;1.37;;
13975;SDS011;7062;49.792;9.946;2023-07-16T13:45:06;3.20;;;1.63;;
13975;SDS011;7062;49.792;9.946;2023-07-16T13:47:32;1.70;;;1.20;;
13975;SDS011;7062;49.792;9.946;2023-07-16T13:49:57;3.43;;;1.77;;
13975;SDS011;7062;49.792;9.946;2023-07-16T13:52:23;4.27;;;1.83;;
13975;SDS011;7062;49.792;9.946;2023-07-16T13:54:49;5.70;;;1.73;;
13975;SDS011;7062;49.792;9.946;2023-07-16T13:57:14;1.93;;;1.23;;
13975;SDS011;7062;49.792;9.946;2023-07-16T13:59:40;4.80;;;1.50;;
13975;SDS011;7062;49.792;9.946;2023-07-16T14:02:06;3.77;;;1.80;;
13975;SDS011;7062;49.792;9.946;2023-07-16T14:04:31;2.93;;;1.47;;
13975;SDS011;7062;49.792;9.946;2023-07-16T14:06:58;2.80;;;1.47;;
13975;SDS011;7062;49.792;9.946;2023-07-16T14:09:24;2.97;;;1.37;;
13975;SDS011;7062;49.792;9.946;2023-07-16T14:11:50;3.57;;;1.40;;
13975;SDS011;7062;49.792;9.946;2023-07-16T14:14:16;5.90;;;1.60;;
13975;SDS011;7062;49.792;9.946;2023-07-16T14:16:42;3.63;;;1.40;;
13975;SDS011;7062;49.792;9.946;2023-07-16T14:19:08;2.10;;;1.43;;
13975;SDS011;7062;49.792;9.946;2023-07-16T14:21:34;4.40;;;1.47;;
13975;SDS011;7062;49.792;9.946;2023-07-16T14:24:00;4.13;;;1.97;;
13975;SDS011;7062;49.792;9.946;2023-07-16T14:26:26;3.43;;;1.53;;
13975;SDS011;7062;49.792;9.946;2023-07-16T14:28:51;2.97;;;1.83;;
13975;SDS011;7062;49.792;9.946;2023-07-16T14:31:17;3.00;;;1.40;;
13975;SDS011;7062;49.792;9.946;2023-07-16T14:33:43;2.73;;;1.47;;
13975;SDS011;7062;49.792;9.946;2023-07-16T14:36:09;4.23;;;1.80;;
13975;SDS011;7062;49.792;9.946;2023-07-16T14:38:34;3.03;;;1.67;;
13975;SDS011;7062;49.792;9.946;2023-07-16T14:41:00;3.13;;;1.27;;
13975;SDS011;7062;49.792;9.946;2023-07-16T14:43:26;2.63;;;1.60;;
13975;SDS011;7062;49.792;9.946;2023-07-16T14:45:51;3.43;;;1.67;;
13975;SDS011;7062;49.792;9.946;2023-07-16T14:48:17;3.30;;;1.80;;
13975;SDS011;7062;49.792;9.946;2023-07-16T14:50:42;2.90;;;1.63;;
13975;SDS011;7062;49.792;9.946;2023-07-16T14:53:08;2.57;;;1.33;;
13975;SDS011;7062;49.792;9.946;2023-07-16T14:55:35;2.87;;;1.57;;
13975;SDS011;7062;49.792;9.946;2023-07-16T14:58:01;2.77;;;1.50;;
13975;SDS011;7062;49.792;9.946;2023-07-16T15:00:27;3.13;;;1.57;;
13975;SDS011;7062;49.792;9.946;2023-07-16T15:02:53;2.00;;;1.37;;